sensor_id;sensor_type;location;lat;lon;timestamp;P1;durP1;ratioP1;P2;durP2;ratioP2
18653;SDS011;9456;47.824;16.228;2023-01-19T00:01:27;6.20;;;4.13;;
18653;SDS011;9456;47.824;16.228;2023-01-19T00:03:56;4.60;;;3.63;;
18653;SDS011;9456;47.824;16.228;2023-01-19T00:06:25;4.50;;;4.10;;
18653;SDS011;9456;47.824;16.228;2023-01-19T00:08:54;4.87;;;4.30;;
18653;SDS011;9456;47.824;16.228;2023-01-19T00:11:23;3.40;;;3.20;;
18653;SDS011;9456;47.824;16.228;2023-01-19T00:13:52;3.23;;;3.00;;
18653;SDS011;9456;47.824;16.228;2023-01-19T00:16:21;3.60;;;3.30;;
18653;SDS011;9456;47.824;16.228;2023-01-19T00:18:50;3.70;;;3.40;;
18653;SDS011;9456;47.824;16.228;2023-01-19T00:21:19;3.67;;;3.37;;
18653;SDS011;9456;47.824;16.228;2023-01-19T00:23:48;3.37;;;3.07;;
18653;SDS011;9456;47.824;16.228;2023-01-19T00:26:17;3.80;;;3.40;;
18653;SDS011;9456;47.824;16.228;2023-01-19T00:28:48;3.43;;;3.13;;
18653;SDS011;9456;47.824;16.228;2023-01-19T00:31:17;3.37;;;3.10;;
18653;SDS011;9456;47.824;16.228;2023-01-19T00:33:46;3.53;;;3.23;;
18653;SDS011;9456;47.824;16.228;2023-01-19T00:36:22;3.50;;;3.10;;
18653;SDS011;9456;47.824;16.228;2023-01-19T00:38:51;3.40;;;3.10;;
18653;SDS011;9456;47.824;16.228;2023-01-19T00:41:20;3.73;;;3.43;;
18653;SDS011;9456;47.824;16.228;2023-01-19T00:43:49;3.90;;;3.60;;
18653;SDS011;9456;47.824;16.228;2023-01-19T00:46:18;3.57;;;3.27;;
18653;SDS011;9456;47.824;16.228;2023-01-19T00:48:47;3.37;;;3.07;;
18653;SDS011;9456;47.824;16.228;2023-01-19T00:51:16;3.83;;;3.43;;
18653;SDS011;9456;47.824;16.228;2023-01-19T00:53:45;4.80;;;3.87;;
18653;SDS011;9456;47.824;16.228;2023-01-19T00:56:14;3.50;;;3.20;;
18653;SDS011;9456;47.824;16.228;2023-01-19T00:58:43;3.87;;;3.57;;
18653;SDS011;9456;47.824;16.228;2023-01-19T01:01:12;4.53;;;4.10;;
18653;SDS011;9456;47.824;16.228;2023-01-19T01:03:41;3.73;;;3.43;;
18653;SDS011;9456;47.824;16.228;2023-01-19T01:06:10;4.10;;;3.70;;
18653;SDS011;9456;47.824;16.228;2023-01-19T01:08:39;3.77;;;3.33;;
18653;SDS011;9456;47.824;16.228;2023-01-19T01:11:08;4.20;;;3.80;;
18653;SDS011;9456;47.824;16.228;2023-01-19T01:13:37;4.30;;;3.90;;
18653;SDS011;9456;47.824;16.228;2023-01-19T01:16:06;4.00;;;3.70;;
18653;SDS011;9456;47.824;16.228;2023-01-19T01:18:36;4.37;;;3.97;;
18653;SDS011;9456;47.824;16.228;2023-01-19T01:21:05;4.33;;;3.93;;
18653;SDS011;9456;47.824;16.228;2023-01-19T01:23:34;4.83;;;4.00;;
18653;SDS011;9456;47.824;16.228;2023-01-19T01:26:05;4.33;;;3.93;;
18653;SDS011;9456;47.824;16.228;2023-01-19T01:28:34;3.97;;;3.63;;
18653;SDS011;9456;47.824;16.228;2023-01-19T01:31:03;4.20;;;3.83;;
18653;SDS011;9456;47.824;16.228;2023-01-19T01:33:32;4.40;;;3.97;;
18653;SDS011;9456;47.824;16.228;2023-01-19T01:36:01;4.70;;;4.13;;
18653;SDS011;9456;47.824;16.228;2023-01-19T01:38:37;4.97;;;4.47;;
18653;SDS011;9456;47.824;16.228;2023-01-19T01:41:07;4.10;;;3.77;;
18653;SDS011;9456;47.824;16.228;2023-01-19T01:43:43;4.77;;;4.33;;
18653;SDS011;9456;47.824;16.228;2023-01-19T01:46:12;4.43;;;4.03;;
18653;SDS011;9456;47.824;16.228;2023-01-19T01:48:41;5.33;;;4.83;;
18653;SDS011;9456;47.824;16.228;2023-01-19T01:51:13;4.50;;;4.10;;
18653;SDS011;9456;47.824;16.228;2023-01-19T01:53:56;4.30;;;3.90;;
18653;SDS011;9456;47.824;16.228;2023-01-19T01:56:29;5.20;;;4.70;;
18653;SDS011;9456;47.824;16.228;2023-01-19T01:58:58;4.87;;;4.37;;
18653;SDS011;9456;47.824;16.228;2023-01-19T02:01:27;5.13;;;4.63;;
18653;SDS011;9456;47.824;16.228;2023-01-19T02:04:14;5.63;;;4.27;;
18653;SDS011;9456;47.824;16.228;2023-01-19T02:06:43;4.87;;;4.13;;
18653;SDS011;9456;47.824;16.228;2023-01-19T02:09:31;4.83;;;4.43;;
18653;SDS011;9456;47.824;16.228;2023-01-19T02:12:17;5.27;;;4.70;;
18653;SDS011;9456;47.824;16.228;2023-01-19T02:15:04;11.27;;;5.40;;
18653;SDS011;9456;47.824;16.228;2023-01-19T02:17:40;5.90;;;5.30;;
18653;SDS011;9456;47.824;16.228;2023-01-19T02:20:10;5.83;;;5.33;;
18653;SDS011;9456;47.824;16.228;2023-01-19T02:22:41;5.97;;;5.37;;
18653;SDS011;9456;47.824;16.228;2023-01-19T02:25:11;5.40;;;4.90;;
18653;SDS011;9456;47.824;16.228;2023-01-19T02:27:40;6.40;;;5.70;;
18653;SDS011;9456;47.824;16.228;2023-01-19T02:30:11;6.43;;;5.83;;
18653;SDS011;9456;47.824;16.228;2023-01-19T02:32:40;7.00;;;6.27;;
18653;SDS011;9456;47.824;16.228;2023-01-19T02:35:10;7.30;;;6.53;;
18653;SDS011;9456;47.824;16.228;2023-01-19T02:37:39;7.13;;;6.30;;
18653;SDS011;9456;47.824;16.228;2023-01-19T02:40:14;7.53;;;6.40;;
18653;SDS011;9456;47.824;16.228;2023-01-19T02:42:42;8.70;;;6.13;;
18653;SDS011;9456;47.824;16.228;2023-01-19T02:45:12;7.27;;;6.57;;
18653;SDS011;9456;47.824;16.228;2023-01-19T02:47:42;6.83;;;6.13;;
18653;SDS011;9456;47.824;16.228;2023-01-19T02:53:18;6.77;;;6.17;;
18653;SDS011;9456;47.824;16.228;2023-01-19T02:55:55;6.47;;;5.87;;
18653;SDS011;9456;47.824;16.228;2023-01-19T02:58:24;7.30;;;6.60;;
18653;SDS011;9456;47.824;16.228;2023-01-19T03:00:57;6.97;;;6.27;;
18653;SDS011;9456;47.824;16.228;2023-01-19T03:03:27;7.70;;;6.90;;
18653;SDS011;9456;47.824;16.228;2023-01-19T03:05:56;7.57;;;6.77;;
18653;SDS011;9456;47.824;16.228;2023-01-19T03:08:28;7.20;;;6.50;;
18653;SDS011;9456;47.824;16.228;2023-01-19T03:10:59;8.60;;;7.70;;
18653;SDS011;9456;47.824;16.228;2023-01-19T03:13:29;7.97;;;7.00;;
18653;SDS011;9456;47.824;16.228;2023-01-19T03:16:01;8.13;;;7.20;;
18653;SDS011;9456;47.824;16.228;2023-01-19T03:18:30;7.57;;;6.80;;
18653;SDS011;9456;47.824;16.228;2023-01-19T03:20:59;7.90;;;7.10;;
18653;SDS011;9456;47.824;16.228;2023-01-19T03:23:28;9.43;;;8.43;;
18653;SDS011;9456;47.824;16.228;2023-01-19T03:25:57;7.93;;;7.13;;
18653;SDS011;9456;47.824;16.228;2023-01-19T03:28:27;12.77;;;9.90;;
18653;SDS011;9456;47.824;16.228;2023-01-19T03:30:56;9.33;;;8.27;;
18653;SDS011;9456;47.824;16.228;2023-01-19T03:33:27;13.03;;;9.77;;
18653;SDS011;9456;47.824;16.228;2023-01-19T03:35:56;9.00;;;7.87;;
18653;SDS011;9456;47.824;16.228;2023-01-19T03:38:25;8.80;;;7.07;;
18653;SDS011;9456;47.824;16.228;2023-01-19T03:40:54;6.67;;;5.53;;
18653;SDS011;9456;47.824;16.228;2023-01-19T03:43:25;6.30;;;5.53;;
18653;SDS011;9456;47.824;16.228;2023-01-19T03:45:54;6.70;;;6.00;;
18653;SDS011;9456;47.824;16.228;2023-01-19T03:48:25;6.40;;;5.80;;
18653;SDS011;9456;47.824;16.228;2023-01-19T03:50:54;7.30;;;6.13;;
18653;SDS011;9456;47.824;16.228;2023-01-19T03:53:23;7.60;;;6.80;;
18653;SDS011;9456;47.824;16.228;2023-01-19T03:55:52;6.57;;;5.87;;
18653;SDS011;9456;47.824;16.228;2023-01-19T03:58:21;7.23;;;6.40;;
18653;SDS011;9456;47.824;16.228;2023-01-19T04:00:50;6.50;;;5.90;;
18653;SDS011;9456;47.824;16.228;2023-01-19T04:03:19;6.40;;;5.80;;
18653;SDS011;9456;47.824;16.228;2023-01-19T04:05:48;7.03;;;6.23;;
18653;SDS011;9456;47.824;16.228;2023-01-19T04:08:17;6.53;;;5.83;;
18653;SDS011;9456;47.824;16.228;2023-01-19T04:10:46;7.30;;;6.60;;
18653;SDS011;9456;47.824;16.228;2023-01-19T04:13:15;7.00;;;6.20;;
18653;SDS011;9456;47.824;16.228;2023-01-19T04:15:44;6.83;;;5.87;;
18653;SDS011;9456;47.824;16.228;2023-01-19T04:18:13;7.33;;;6.60;;
18653;SDS011;9456;47.824;16.228;2023-01-19T04:20:42;6.13;;;5.57;;
18653;SDS011;9456;47.824;16.228;2023-01-19T04:23:11;9.07;;;6.70;;
18653;SDS011;9456;47.824;16.228;2023-01-19T04:25:40;7.37;;;6.57;;
18653;SDS011;9456;47.824;16.228;2023-01-19T04:28:09;6.50;;;5.80;;
18653;SDS011;9456;47.824;16.228;2023-01-19T04:30:38;5.97;;;5.43;;
18653;SDS011;9456;47.824;16.228;2023-01-19T04:33:07;6.40;;;5.20;;
18653;SDS011;9456;47.824;16.228;2023-01-19T04:35:36;6.33;;;5.40;;
18653;SDS011;9456;47.824;16.228;2023-01-19T04:38:05;6.20;;;5.60;;
18653;SDS011;9456;47.824;16.228;2023-01-19T04:40:34;7.40;;;6.37;;
18653;SDS011;9456;47.824;16.228;2023-01-19T04:43:04;6.37;;;5.77;;
18653;SDS011;9456;47.824;16.228;2023-01-19T04:45:38;9.17;;;5.83;;
18653;SDS011;9456;47.824;16.228;2023-01-19T04:48:07;6.20;;;5.60;;
18653;SDS011;9456;47.824;16.228;2023-01-19T04:50:36;6.50;;;5.90;;
18653;SDS011;9456;47.824;16.228;2023-01-19T04:53:05;6.93;;;6.23;;
18653;SDS011;9456;47.824;16.228;2023-01-19T04:55:35;6.50;;;5.87;;
18653;SDS011;9456;47.824;16.228;2023-01-19T04:58:04;6.87;;;6.17;;
18653;SDS011;9456;47.824;16.228;2023-01-19T05:00:34;6.77;;;6.07;;
18653;SDS011;9456;47.824;16.228;2023-01-19T05:03:03;6.63;;;5.60;;
18653;SDS011;9456;47.824;16.228;2023-01-19T05:05:32;6.73;;;6.03;;
18653;SDS011;9456;47.824;16.228;2023-01-19T05:08:01;9.50;;;7.47;;
18653;SDS011;9456;47.824;16.228;2023-01-19T05:10:30;7.87;;;7.03;;
18653;SDS011;9456;47.824;16.228;2023-01-19T05:12:59;7.40;;;6.60;;
18653;SDS011;9456;47.824;16.228;2023-01-19T05:15:28;7.80;;;7.00;;
18653;SDS011;9456;47.824;16.228;2023-01-19T05:17:57;15.67;;;11.27;;
18653;SDS011;9456;47.824;16.228;2023-01-19T05:20:29;7.57;;;6.87;;
18653;SDS011;9456;47.824;16.228;2023-01-19T05:22:58;9.07;;;8.10;;
18653;SDS011;9456;47.824;16.228;2023-01-19T05:25:27;7.97;;;7.20;;
18653;SDS011;9456;47.824;16.228;2023-01-19T05:27:56;8.57;;;7.07;;
18653;SDS011;9456;47.824;16.228;2023-01-19T05:30:25;7.23;;;6.40;;
18653;SDS011;9456;47.824;16.228;2023-01-19T05:32:54;8.20;;;6.90;;
18653;SDS011;9456;47.824;16.228;2023-01-19T05:35:23;8.17;;;7.37;;
18653;SDS011;9456;47.824;16.228;2023-01-19T05:37:52;7.90;;;6.67;;
18653;SDS011;9456;47.824;16.228;2023-01-19T05:40:22;8.07;;;6.97;;
18653;SDS011;9456;47.824;16.228;2023-01-19T05:42:51;8.37;;;7.40;;
18653;SDS011;9456;47.824;16.228;2023-01-19T05:45:21;8.80;;;7.77;;
18653;SDS011;9456;47.824;16.228;2023-01-19T05:47:50;7.73;;;6.93;;
18653;SDS011;9456;47.824;16.228;2023-01-19T05:50:21;9.30;;;8.30;;
18653;SDS011;9456;47.824;16.228;2023-01-19T05:52:51;9.47;;;8.27;;
18653;SDS011;9456;47.824;16.228;2023-01-19T05:55:20;10.13;;;8.30;;
18653;SDS011;9456;47.824;16.228;2023-01-19T05:57:48;8.90;;;8.00;;
18653;SDS011;9456;47.824;16.228;2023-01-19T06:00:18;8.83;;;7.93;;
18653;SDS011;9456;47.824;16.228;2023-01-19T06:02:47;9.40;;;8.20;;
18653;SDS011;9456;47.824;16.228;2023-01-19T06:05:16;9.47;;;8.47;;
18653;SDS011;9456;47.824;16.228;2023-01-19T06:07:45;15.53;;;11.97;;
18653;SDS011;9456;47.824;16.228;2023-01-19T06:10:16;10.73;;;8.77;;
18653;SDS011;9456;47.824;16.228;2023-01-19T06:12:45;10.83;;;9.60;;
18653;SDS011;9456;47.824;16.228;2023-01-19T06:15:18;13.20;;;9.37;;
18653;SDS011;9456;47.824;16.228;2023-01-19T06:17:47;10.07;;;9.07;;
18653;SDS011;9456;47.824;16.228;2023-01-19T06:20:16;10.77;;;8.87;;
18653;SDS011;9456;47.824;16.228;2023-01-19T06:22:45;11.40;;;9.57;;
18653;SDS011;9456;47.824;16.228;2023-01-19T06:25:15;10.17;;;9.07;;
18653;SDS011;9456;47.824;16.228;2023-01-19T06:27:44;10.03;;;9.03;;
18653;SDS011;9456;47.824;16.228;2023-01-19T06:30:13;9.97;;;8.93;;
18653;SDS011;9456;47.824;16.228;2023-01-19T06:32:43;11.37;;;9.70;;
18653;SDS011;9456;47.824;16.228;2023-01-19T06:35:12;11.10;;;9.47;;
18653;SDS011;9456;47.824;16.228;2023-01-19T06:37:41;10.87;;;8.97;;
18653;SDS011;9456;47.824;16.228;2023-01-19T06:40:10;10.37;;;9.37;;
18653;SDS011;9456;47.824;16.228;2023-01-19T06:42:39;20.97;;;14.13;;
18653;SDS011;9456;47.824;16.228;2023-01-19T06:45:09;11.70;;;9.50;;
18653;SDS011;9456;47.824;16.228;2023-01-19T06:47:38;11.53;;;10.33;;
18653;SDS011;9456;47.824;16.228;2023-01-19T06:50:09;13.93;;;11.47;;
18653;SDS011;9456;47.824;16.228;2023-01-19T06:52:38;12.47;;;10.70;;
18653;SDS011;9456;47.824;16.228;2023-01-19T06:55:10;11.30;;;10.10;;
18653;SDS011;9456;47.824;16.228;2023-01-19T06:57:39;13.23;;;10.53;;
18653;SDS011;9456;47.824;16.228;2023-01-19T07:00:09;13.00;;;11.33;;
18653;SDS011;9456;47.824;16.228;2023-01-19T07:02:40;13.23;;;10.73;;
18653;SDS011;9456;47.824;16.228;2023-01-19T07:05:10;12.43;;;10.73;;
18653;SDS011;9456;47.824;16.228;2023-01-19T07:07:40;13.53;;;11.33;;
18653;SDS011;9456;47.824;16.228;2023-01-19T07:10:09;11.73;;;10.47;;
18653;SDS011;9456;47.824;16.228;2023-01-19T07:12:38;13.00;;;10.97;;
18653;SDS011;9456;47.824;16.228;2023-01-19T07:15:08;11.60;;;10.40;;
18653;SDS011;9456;47.824;16.228;2023-01-19T07:17:37;12.93;;;11.53;;
18653;SDS011;9456;47.824;16.228;2023-01-19T07:20:08;12.43;;;10.73;;
18653;SDS011;9456;47.824;16.228;2023-01-19T07:22:39;13.43;;;11.30;;
18653;SDS011;9456;47.824;16.228;2023-01-19T07:25:08;15.13;;;11.97;;
18653;SDS011;9456;47.824;16.228;2023-01-19T07:27:37;13.60;;;11.40;;
18653;SDS011;9456;47.824;16.228;2023-01-19T07:30:07;12.70;;;11.40;;
18653;SDS011;9456;47.824;16.228;2023-01-19T07:32:38;12.83;;;11.50;;
18653;SDS011;9456;47.824;16.228;2023-01-19T07:35:08;16.27;;;11.90;;
18653;SDS011;9456;47.824;16.228;2023-01-19T07:37:37;11.23;;;9.73;;
18653;SDS011;9456;47.824;16.228;2023-01-19T07:40:06;12.57;;;10.93;;
18653;SDS011;9456;47.824;16.228;2023-01-19T07:42:36;13.13;;;11.53;;
18653;SDS011;9456;47.824;16.228;2023-01-19T07:45:07;13.47;;;11.07;;
18653;SDS011;9456;47.824;16.228;2023-01-19T07:47:37;14.03;;;12.20;;
18653;SDS011;9456;47.824;16.228;2023-01-19T07:50:07;14.37;;;11.60;;
18653;SDS011;9456;47.824;16.228;2023-01-19T07:52:39;14.73;;;12.10;;
18653;SDS011;9456;47.824;16.228;2023-01-19T07:55:09;12.67;;;11.37;;
18653;SDS011;9456;47.824;16.228;2023-01-19T07:57:37;16.70;;;12.67;;
18653;SDS011;9456;47.824;16.228;2023-01-19T08:00:08;14.70;;;12.47;;
18653;SDS011;9456;47.824;16.228;2023-01-19T08:02:37;13.20;;;11.80;;
18653;SDS011;9456;47.824;16.228;2023-01-19T08:05:09;17.87;;;13.20;;
18653;SDS011;9456;47.824;16.228;2023-01-19T08:07:38;15.03;;;13.40;;
18653;SDS011;9456;47.824;16.228;2023-01-19T08:10:07;18.63;;;14.00;;
18653;SDS011;9456;47.824;16.228;2023-01-19T08:12:37;14.97;;;11.37;;
18653;SDS011;9456;47.824;16.228;2023-01-19T08:15:07;13.17;;;11.00;;
18653;SDS011;9456;47.824;16.228;2023-01-19T08:17:37;12.60;;;9.93;;
18653;SDS011;9456;47.824;16.228;2023-01-19T08:20:07;10.73;;;9.33;;
18653;SDS011;9456;47.824;16.228;2023-01-19T08:22:39;10.10;;;8.40;;
18653;SDS011;9456;47.824;16.228;2023-01-19T08:25:09;11.77;;;9.77;;
18653;SDS011;9456;47.824;16.228;2023-01-19T08:27:38;11.73;;;10.03;;
18653;SDS011;9456;47.824;16.228;2023-01-19T08:30:08;12.40;;;9.17;;
18653;SDS011;9456;47.824;16.228;2023-01-19T08:32:38;10.73;;;8.97;;
18653;SDS011;9456;47.824;16.228;2023-01-19T08:35:07;15.30;;;9.73;;
18653;SDS011;9456;47.824;16.228;2023-01-19T08:37:37;9.67;;;8.23;;
18653;SDS011;9456;47.824;16.228;2023-01-19T08:40:11;10.23;;;8.33;;
18653;SDS011;9456;47.824;16.228;2023-01-19T08:42:40;9.17;;;8.27;;
18653;SDS011;9456;47.824;16.228;2023-01-19T08:45:11;9.90;;;8.73;;
18653;SDS011;9456;47.824;16.228;2023-01-19T08:47:41;9.07;;;8.03;;
18653;SDS011;9456;47.824;16.228;2023-01-19T08:50:11;8.97;;;8.07;;
18653;SDS011;9456;47.824;16.228;2023-01-19T08:52:40;8.57;;;7.67;;
18653;SDS011;9456;47.824;16.228;2023-01-19T08:55:09;9.67;;;8.67;;
18653;SDS011;9456;47.824;16.228;2023-01-19T08:57:39;9.50;;;8.50;;
18653;SDS011;9456;47.824;16.228;2023-01-19T09:00:08;9.87;;;8.43;;
18653;SDS011;9456;47.824;16.228;2023-01-19T09:02:38;9.67;;;8.53;;
18653;SDS011;9456;47.824;16.228;2023-01-19T09:05:10;8.13;;;7.33;;
18653;SDS011;9456;47.824;16.228;2023-01-19T09:07:39;9.97;;;8.90;;
18653;SDS011;9456;47.824;16.228;2023-01-19T09:10:09;9.30;;;7.93;;
18653;SDS011;9456;47.824;16.228;2023-01-19T09:12:39;9.10;;;7.93;;
18653;SDS011;9456;47.824;16.228;2023-01-19T09:15:08;9.40;;;8.40;;
18653;SDS011;9456;47.824;16.228;2023-01-19T09:17:37;9.53;;;8.03;;
18653;SDS011;9456;47.824;16.228;2023-01-19T09:20:09;11.03;;;8.63;;
18653;SDS011;9456;47.824;16.228;2023-01-19T09:22:38;10.63;;;8.73;;
18653;SDS011;9456;47.824;16.228;2023-01-19T09:25:08;9.50;;;7.53;;
18653;SDS011;9456;47.824;16.228;2023-01-19T09:27:37;9.73;;;7.93;;
18653;SDS011;9456;47.824;16.228;2023-01-19T09:30:08;10.30;;;7.63;;
18653;SDS011;9456;47.824;16.228;2023-01-19T09:32:38;10.90;;;7.27;;
18653;SDS011;9456;47.824;16.228;2023-01-19T09:35:07;10.33;;;7.57;;
18653;SDS011;9456;47.824;16.228;2023-01-19T09:37:37;8.93;;;7.40;;
18653;SDS011;9456;47.824;16.228;2023-01-19T09:40:07;9.70;;;8.47;;
18653;SDS011;9456;47.824;16.228;2023-01-19T09:42:39;8.70;;;7.80;;
18653;SDS011;9456;47.824;16.228;2023-01-19T09:45:07;7.97;;;6.80;;
18653;SDS011;9456;47.824;16.228;2023-01-19T09:47:38;7.70;;;6.90;;
18653;SDS011;9456;47.824;16.228;2023-01-19T09:50:11;7.10;;;5.90;;
18653;SDS011;9456;47.824;16.228;2023-01-19T09:52:38;8.07;;;7.27;;
18653;SDS011;9456;47.824;16.228;2023-01-19T09:55:07;9.00;;;7.73;;
18653;SDS011;9456;47.824;16.228;2023-01-19T09:57:38;6.33;;;5.73;;
18653;SDS011;9456;47.824;16.228;2023-01-19T10:00:12;6.60;;;5.90;;
18653;SDS011;9456;47.824;16.228;2023-01-19T10:02:43;8.40;;;7.17;;
18653;SDS011;9456;47.824;16.228;2023-01-19T10:05:16;7.57;;;6.77;;
18653;SDS011;9456;47.824;16.228;2023-01-19T10:07:49;7.20;;;6.50;;
18653;SDS011;9456;47.824;16.228;2023-01-19T10:10:22;7.50;;;6.47;;
18653;SDS011;9456;47.824;16.228;2023-01-19T10:12:56;7.50;;;6.73;;
18653;SDS011;9456;47.824;16.228;2023-01-19T10:15:43;8.77;;;7.87;;
18653;SDS011;9456;47.824;16.228;2023-01-19T10:18:18;9.57;;;8.40;;
18653;SDS011;9456;47.824;16.228;2023-01-19T10:20:47;9.00;;;7.43;;
18653;SDS011;9456;47.824;16.228;2023-01-19T10:23:27;12.57;;;10.40;;
18653;SDS011;9456;47.824;16.228;2023-01-19T10:26:00;9.73;;;8.63;;
18653;SDS011;9456;47.824;16.228;2023-01-19T10:28:29;9.90;;;8.03;;
18653;SDS011;9456;47.824;16.228;2023-01-19T10:30:58;11.67;;;7.87;;
18653;SDS011;9456;47.824;16.228;2023-01-19T10:33:27;8.30;;;7.43;;
18653;SDS011;9456;47.824;16.228;2023-01-19T10:35:56;13.10;;;9.37;;
18653;SDS011;9456;47.824;16.228;2023-01-19T10:38:25;38.30;;;20.50;;
18653;SDS011;9456;47.824;16.228;2023-01-19T10:40:56;8.43;;;6.60;;
18653;SDS011;9456;47.824;16.228;2023-01-19T10:43:38;8.17;;;7.37;;
18653;SDS011;9456;47.824;16.228;2023-01-19T10:46:07;10.13;;;8.80;;
18653;SDS011;9456;47.824;16.228;2023-01-19T10:48:38;8.47;;;7.30;;
18653;SDS011;9456;47.824;16.228;2023-01-19T10:51:07;8.60;;;7.33;;
18653;SDS011;9456;47.824;16.228;2023-01-19T10:53:36;7.57;;;6.77;;
18653;SDS011;9456;47.824;16.228;2023-01-19T10:56:12;7.37;;;6.67;;
18653;SDS011;9456;47.824;16.228;2023-01-19T10:58:43;9.17;;;6.97;;
18653;SDS011;9456;47.824;16.228;2023-01-19T11:01:14;9.47;;;7.33;;
18653;SDS011;9456;47.824;16.228;2023-01-19T11:03:43;10.53;;;7.17;;
18653;SDS011;9456;47.824;16.228;2023-01-19T11:06:25;7.67;;;6.90;;
18653;SDS011;9456;47.824;16.228;2023-01-19T11:09:07;9.37;;;7.77;;
18653;SDS011;9456;47.824;16.228;2023-01-19T11:11:42;9.40;;;7.57;;
18653;SDS011;9456;47.824;16.228;2023-01-19T11:14:12;9.37;;;8.10;;
18653;SDS011;9456;47.824;16.228;2023-01-19T11:16:43;9.53;;;7.70;;
18653;SDS011;9456;47.824;16.228;2023-01-19T11:19:19;8.57;;;7.30;;
18653;SDS011;9456;47.824;16.228;2023-01-19T11:21:49;7.77;;;6.97;;
18653;SDS011;9456;47.824;16.228;2023-01-19T11:24:18;9.33;;;7.40;;
18653;SDS011;9456;47.824;16.228;2023-01-19T11:26:47;9.77;;;8.03;;
18653;SDS011;9456;47.824;16.228;2023-01-19T11:29:16;9.73;;;7.57;;
18653;SDS011;9456;47.824;16.228;2023-01-19T11:31:46;9.40;;;7.83;;
18653;SDS011;9456;47.824;16.228;2023-01-19T11:34:25;11.00;;;7.63;;
18653;SDS011;9456;47.824;16.228;2023-01-19T11:36:58;10.67;;;8.30;;
18653;SDS011;9456;47.824;16.228;2023-01-19T11:39:27;11.20;;;8.87;;
18653;SDS011;9456;47.824;16.228;2023-01-19T11:41:56;9.77;;;8.53;;
18653;SDS011;9456;47.824;16.228;2023-01-19T11:44:31;11.20;;;8.20;;
18653;SDS011;9456;47.824;16.228;2023-01-19T11:47:00;9.03;;;7.77;;
18653;SDS011;9456;47.824;16.228;2023-01-19T11:49:37;10.27;;;8.20;;
18653;SDS011;9456;47.824;16.228;2023-01-19T11:52:05;8.97;;;7.83;;
18653;SDS011;9456;47.824;16.228;2023-01-19T11:54:39;8.70;;;7.30;;
18653;SDS011;9456;47.824;16.228;2023-01-19T11:57:09;9.53;;;8.53;;
18653;SDS011;9456;47.824;16.228;2023-01-19T11:59:38;10.33;;;7.80;;
18653;SDS011;9456;47.824;16.228;2023-01-19T12:02:13;9.43;;;7.60;;
18653;SDS011;9456;47.824;16.228;2023-01-19T12:04:41;11.83;;;7.47;;
18653;SDS011;9456;47.824;16.228;2023-01-19T12:07:11;9.63;;;7.97;;
18653;SDS011;9456;47.824;16.228;2023-01-19T12:09:41;9.87;;;7.53;;
18653;SDS011;9456;47.824;16.228;2023-01-19T12:12:10;8.10;;;7.30;;
18653;SDS011;9456;47.824;16.228;2023-01-19T12:14:42;8.20;;;7.33;;
18653;SDS011;9456;47.824;16.228;2023-01-19T12:17:11;9.50;;;7.87;;
18653;SDS011;9456;47.824;16.228;2023-01-19T12:19:41;8.67;;;7.60;;
18653;SDS011;9456;47.824;16.228;2023-01-19T12:24:43;8.90;;;7.40;;
18653;SDS011;9456;47.824;16.228;2023-01-19T12:27:14;11.83;;;7.50;;
18653;SDS011;9456;47.824;16.228;2023-01-19T12:29:41;8.87;;;7.47;;
18653;SDS011;9456;47.824;16.228;2023-01-19T12:32:17;8.63;;;6.80;;
18653;SDS011;9456;47.824;16.228;2023-01-19T12:34:47;8.50;;;6.77;;
18653;SDS011;9456;47.824;16.228;2023-01-19T12:40:25;8.93;;;7.00;;
18653;SDS011;9456;47.824;16.228;2023-01-19T12:42:57;7.23;;;6.53;;
18653;SDS011;9456;47.824;16.228;2023-01-19T12:45:28;7.13;;;6.43;;
18653;SDS011;9456;47.824;16.228;2023-01-19T12:47:58;8.20;;;7.00;;
18653;SDS011;9456;47.824;16.228;2023-01-19T12:50:28;7.43;;;6.30;;
18653;SDS011;9456;47.824;16.228;2023-01-19T12:52:57;7.70;;;6.40;;
18653;SDS011;9456;47.824;16.228;2023-01-19T12:55:26;7.30;;;6.60;;
18653;SDS011;9456;47.824;16.228;2023-01-19T12:58:02;7.00;;;6.30;;
18653;SDS011;9456;47.824;16.228;2023-01-19T13:00:33;8.17;;;7.27;;
18653;SDS011;9456;47.824;16.228;2023-01-19T13:03:03;8.40;;;7.53;;
18653;SDS011;9456;47.824;16.228;2023-01-19T13:11:23;7.80;;;7.00;;
18653;SDS011;9456;47.824;16.228;2023-01-19T13:17:02;10.33;;;6.87;;
18653;SDS011;9456;47.824;16.228;2023-01-19T13:19:43;8.60;;;6.83;;
18653;SDS011;9456;47.824;16.228;2023-01-19T13:25:33;9.87;;;8.70;;
18653;SDS011;9456;47.824;16.228;2023-01-19T13:28:05;8.67;;;7.80;;
18653;SDS011;9456;47.824;16.228;2023-01-19T13:30:35;9.03;;;8.13;;
18653;SDS011;9456;47.824;16.228;2023-01-19T13:33:08;8.67;;;6.50;;
18653;SDS011;9456;47.824;16.228;2023-01-19T13:35:37;6.87;;;5.60;;
18653;SDS011;9456;47.824;16.228;2023-01-19T13:38:06;6.13;;;5.53;;
18653;SDS011;9456;47.824;16.228;2023-01-19T13:40:37;6.90;;;5.50;;
18653;SDS011;9456;47.824;16.228;2023-01-19T13:43:07;6.07;;;5.17;;
18653;SDS011;9456;47.824;16.228;2023-01-19T13:45:38;6.10;;;5.50;;
18653;SDS011;9456;47.824;16.228;2023-01-19T13:48:08;5.97;;;4.77;;
18653;SDS011;9456;47.824;16.228;2023-01-19T13:50:36;5.23;;;4.73;;
18653;SDS011;9456;47.824;16.228;2023-01-19T13:53:14;5.87;;;5.20;;
18653;SDS011;9456;47.824;16.228;2023-01-19T13:55:45;6.33;;;4.80;;
18653;SDS011;9456;47.824;16.228;2023-01-19T13:58:21;5.20;;;4.70;;
18653;SDS011;9456;47.824;16.228;2023-01-19T14:00:50;6.77;;;5.87;;
18653;SDS011;9456;47.824;16.228;2023-01-19T14:03:20;7.07;;;4.57;;
18653;SDS011;9456;47.824;16.228;2023-01-19T14:05:50;10.13;;;6.37;;
18653;SDS011;9456;47.824;16.228;2023-01-19T14:08:18;8.00;;;5.20;;
18653;SDS011;9456;47.824;16.228;2023-01-19T14:10:59;4.97;;;4.47;;
18653;SDS011;9456;47.824;16.228;2023-01-19T14:13:27;8.50;;;5.57;;
18653;SDS011;9456;47.824;16.228;2023-01-19T14:15:56;8.97;;;6.60;;
18653;SDS011;9456;47.824;16.228;2023-01-19T14:18:26;6.67;;;4.70;;
18653;SDS011;9456;47.824;16.228;2023-01-19T14:20:57;4.10;;;3.70;;
18653;SDS011;9456;47.824;16.228;2023-01-19T14:23:40;4.63;;;4.23;;
18653;SDS011;9456;47.824;16.228;2023-01-19T14:29:21;3.77;;;3.37;;
18653;SDS011;9456;47.824;16.228;2023-01-19T14:32:02;4.60;;;3.97;;
18653;SDS011;9456;47.824;16.228;2023-01-19T14:34:32;4.73;;;4.07;;
18653;SDS011;9456;47.824;16.228;2023-01-19T14:37:03;4.30;;;4.00;;
18653;SDS011;9456;47.824;16.228;2023-01-19T14:39:33;4.30;;;3.90;;
18653;SDS011;9456;47.824;16.228;2023-01-19T14:42:04;4.30;;;3.90;;
18653;SDS011;9456;47.824;16.228;2023-01-19T14:44:34;4.83;;;4.20;;
18653;SDS011;9456;47.824;16.228;2023-01-19T14:47:03;5.17;;;4.53;;
18653;SDS011;9456;47.824;16.228;2023-01-19T14:49:33;4.93;;;4.40;;
18653;SDS011;9456;47.824;16.228;2023-01-19T14:52:02;6.33;;;4.90;;
18653;SDS011;9456;47.824;16.228;2023-01-19T14:54:32;6.17;;;4.77;;
18653;SDS011;9456;47.824;16.228;2023-01-19T14:57:01;5.77;;;4.60;;
18653;SDS011;9456;47.824;16.228;2023-01-19T14:59:30;6.63;;;5.13;;
18653;SDS011;9456;47.824;16.228;2023-01-19T15:01:59;7.67;;;6.07;;
18653;SDS011;9456;47.824;16.228;2023-01-19T15:04:28;12.27;;;8.43;;
18653;SDS011;9456;47.824;16.228;2023-01-19T15:07:00;5.40;;;4.90;;
18653;SDS011;9456;47.824;16.228;2023-01-19T15:09:30;6.00;;;4.90;;
18653;SDS011;9456;47.824;16.228;2023-01-19T15:12:01;5.60;;;5.10;;
18653;SDS011;9456;47.824;16.228;2023-01-19T15:14:30;5.10;;;4.63;;
18653;SDS011;9456;47.824;16.228;2023-01-19T15:16:59;6.37;;;4.97;;
18653;SDS011;9456;47.824;16.228;2023-01-19T15:19:28;5.13;;;4.63;;
18653;SDS011;9456;47.824;16.228;2023-01-19T15:21:57;6.63;;;5.40;;
18653;SDS011;9456;47.824;16.228;2023-01-19T15:24:27;5.37;;;4.87;;
18653;SDS011;9456;47.824;16.228;2023-01-19T15:26:56;5.87;;;5.27;;